PWSweather.com
Personal Weather Stations
Station Observations
SHAHALMS1
Eftra, Falkenberg, HA

EftraFalkenberg, HA

Lat: 56.85, Lon: 12.65

Elevation: 140

Station Type:

http://hem.passagen.se/risarp101

High Low Average
Temperature 62.1°F16.7°C 55.4°F13.0°C 57.9°F14.4°C
Dew Point 54.3°F12.4°C 43.5°F6.4°C 48.2°F9.0°C
Winds 15.0 mph 24.1 kmh 1.7 mph 2.7 kmh 8.0 mph WNW12.9 kmh WNW
Wind Gusts 42.6 mph68.6 kmh 2.1 mph3.4 kmh 18.0 mph29.0 kmh
Humidity 92% 55% 71%
Pressure 30.36 in1028.1 mb 30.04 in1017.3 mb -
Precipitation 0.24 in6.1 mm - -
Hour Temp Dew Point Humidity Winds Wind Gusts Pressure Precip Precip Rate Daily Precip Total
12:00 AM 57.0°F13.9°C 53.5°F11.9°C 88% 4.2 mph WNW6.8 kmh WNW 10.4 mph16.7 kmh 30.15 in1021.0 mb 0.00 in0.0 mm 0.00 in0.0 mm 0.00 in0.0 mm
12:10 AM 57.0°F13.9°C 53.5°F11.9°C 88% 3.2 mph W5.1 kmh W 10.0 mph16.1 kmh 30.12 in1020.0 mb 0.00 in0.0 mm 0.00 in0.0 mm 0.00 in0.0 mm
12:20 AM 56.8°F13.8°C 53.3°F11.8°C 88% 3.4 mph W5.5 kmh W 6.4 mph10.3 kmh 30.12 in1020.0 mb 0.00 in0.0 mm 0.00 in0.0 mm 0.00 in0.0 mm
12:30 AM 57.0°F13.9°C 53.8°F12.1°C 89% 2.6 mph WSW4.2 kmh WSW 7.5 mph12.1 kmh 30.12 in1020.0 mb 0.00 in0.0 mm 0.00 in0.0 mm 0.00 in0.0 mm
12:40 AM 57.0°F13.9°C 53.8°F12.1°C 89% 3.7 mph W6.0 kmh W 9.7 mph15.6 kmh 30.12 in1020.0 mb 0.00 in0.0 mm 0.00 in0.0 mm 0.00 in0.0 mm
12:50 AM 57.2°F14.0°C 54.0°F12.2°C 89% 3.9 mph WNW6.3 kmh WNW 6.8 mph10.9 kmh 30.12 in1020.0 mb 0.00 in0.0 mm 0.00 in0.0 mm 0.00 in0.0 mm
01:00 AM 57.2°F14.0°C 54.3°F12.4°C 90% 3.6 mph W5.8 kmh W 5.4 mph8.7 kmh 30.09 in1019.0 mb 0.00 in0.0 mm 0.00 in0.0 mm 0.00 in0.0 mm
01:10 AM 57.2°F14.0°C 54.0°F12.2°C 89% 5.9 mph NW9.5 kmh NW 8.9 mph14.3 kmh 30.09 in1019.0 mb 0.00 in0.0 mm 0.00 in0.0 mm 0.00 in0.0 mm
01:20 AM 57.2°F14.0°C 54.0°F12.2°C 89% 3.1 mph NW5.0 kmh NW 8.9 mph14.3 kmh 30.09 in1019.0 mb 0.00 in0.0 mm 0.00 in0.0 mm 0.00 in0.0 mm
01:30 AM 57.4°F14.1°C 54.2°F12.3°C 89% 1.7 mph NW2.7 kmh NW 2.1 mph3.4 kmh 30.09 in1019.0 mb 0.00 in0.0 mm 0.00 in0.0 mm 0.00 in0.0 mm
01:40 AM 57.4°F14.1°C 54.2°F12.3°C 89% 1.7 mph NW2.7 kmh NW 2.1 mph3.4 kmh 30.09 in1019.0 mb 0.00 in0.0 mm 0.00 in0.0 mm 0.00 in0.0 mm
01:50 AM 57.4°F14.1°C 54.2°F12.3°C 89% 1.7 mph NW2.7 kmh NW 2.1 mph3.4 kmh 30.09 in1019.0 mb 0.00 in0.0 mm 0.00 in0.0 mm 0.00 in0.0 mm
02:00 AM 57.4°F14.1°C 54.2°F12.3°C 89% 2.0 mph W3.2 kmh W 2.5 mph4.0 kmh 30.07 in1018.3 mb 0.00 in0.0 mm 0.00 in0.0 mm 0.00 in0.0 mm
02:10 AM 57.6°F14.2°C 54.3°F12.4°C 89% 3.0 mph SW4.8 kmh SW 8.6 mph13.8 kmh 30.07 in1018.3 mb 0.00 in0.0 mm 0.00 in0.0 mm 0.00 in0.0 mm
02:20 AM 57.4°F14.1°C 54.2°F12.3°C 89% 3.8 mph W6.1 kmh W 8.6 mph13.8 kmh 30.07 in1018.3 mb 0.05 in1.3 mm 0.30 in7.6 mm 0.05 in1.3 mm
02:30 AM 57.2°F14.0°C 53.7°F12.1°C 88% 4.1 mph NW6.6 kmh NW 9.7 mph15.6 kmh 30.07 in1018.3 mb 0.05 in1.3 mm 0.00 in0.0 mm 0.05 in1.3 mm
02:40 AM 57.2°F14.0°C 54.0°F12.2°C 89% 2.3 mph WNW3.7 kmh WNW 9.7 mph15.6 kmh 30.07 in1018.3 mb 0.05 in1.3 mm 0.00 in0.0 mm 0.05 in1.3 mm
02:50 AM 57.2°F14.0°C 54.0°F12.2°C 89% 3.3 mph W5.3 kmh W 11.5 mph18.5 kmh 30.07 in1018.3 mb 0.05 in1.3 mm 0.00 in0.0 mm 0.05 in1.3 mm
03:00 AM 57.2°F14.0°C 54.0°F12.2°C 89% 3.3 mph W5.3 kmh W 11.5 mph18.5 kmh 30.07 in1018.3 mb 0.05 in1.3 mm 0.00 in0.0 mm 0.05 in1.3 mm
03:10 AM 57.2°F14.0°C 54.3°F12.4°C 90% 2.2 mph WSW3.5 kmh WSW 6.1 mph9.8 kmh 30.07 in1018.3 mb 0.09 in2.3 mm 0.24 in6.1 mm 0.09 in2.3 mm
03:20 AM 57.2°F14.0°C 54.3°F12.4°C 90% 2.3 mph W3.7 kmh W 6.1 mph9.8 kmh 30.07 in1018.3 mb 0.05 in1.3 mm 0.00 in0.0 mm 0.09 in2.3 mm
03:30 AM 57.2°F14.0°C 54.3°F12.4°C 90% 3.4 mph WNW5.5 kmh WNW 8.6 mph13.8 kmh 30.04 in1017.3 mb 0.09 in2.3 mm 0.24 in6.1 mm 0.14 in3.6 mm
03:40 AM 57.2°F14.0°C 54.3°F12.4°C 90% 4.4 mph WNW7.1 kmh WNW 10.4 mph16.7 kmh 30.07 in1018.3 mb 0.09 in2.3 mm 0.00 in0.0 mm 0.14 in3.6 mm
03:50 AM 56.8°F13.8°C 53.9°F12.2°C 90% 5.6 mph W9.0 kmh W 11.5 mph18.5 kmh 30.07 in1018.3 mb 0.09 in2.3 mm 0.00 in0.0 mm 0.14 in3.6 mm
04:00 AM 56.7°F13.7°C 53.8°F12.1°C 90% 5.1 mph W8.2 kmh W 11.1 mph17.9 kmh 30.07 in1018.3 mb 0.09 in2.3 mm 0.00 in0.0 mm 0.14 in3.6 mm
04:10 AM 56.5°F13.6°C 53.6°F12.0°C 90% 4.7 mph WNW7.6 kmh WNW 12.9 mph20.8 kmh 30.07 in1018.3 mb 0.09 in2.3 mm 0.00 in0.0 mm 0.18 in4.6 mm
04:20 AM 56.3°F13.5°C 53.4°F11.9°C 90% 4.6 mph W7.4 kmh W 10.0 mph16.1 kmh 30.07 in1018.3 mb 0.09 in2.3 mm 0.00 in0.0 mm 0.18 in4.6 mm
04:30 AM 56.1°F13.4°C 53.2°F11.8°C 90% 4.5 mph W7.2 kmh W 12.5 mph20.1 kmh 30.07 in1018.3 mb 0.05 in1.3 mm 0.00 in0.0 mm 0.18 in4.6 mm
04:40 AM 56.1°F13.4°C 53.5°F11.9°C 91% 4.0 mph W6.4 kmh W 12.9 mph20.8 kmh 30.07 in1018.3 mb 0.05 in1.3 mm 0.00 in0.0 mm 0.18 in4.6 mm
04:50 AM 56.3°F13.5°C 53.7°F12.1°C 91% 5.0 mph W8.0 kmh W 12.2 mph19.6 kmh 30.07 in1018.3 mb 0.05 in1.3 mm 0.00 in0.0 mm 0.18 in4.6 mm
05:00 AM 56.1°F13.4°C 53.5°F11.9°C 91% 4.8 mph W7.7 kmh W 15.0 mph24.1 kmh 30.07 in1018.3 mb 0.05 in1.3 mm 0.00 in0.0 mm 0.18 in4.6 mm
05:10 AM 56.3°F13.5°C 53.7°F12.1°C 91% 4.8 mph WNW7.7 kmh WNW 12.2 mph19.6 kmh 30.07 in1018.3 mb 0.00 in0.0 mm 0.00 in0.0 mm 0.18 in4.6 mm
05:20 AM 56.3°F13.5°C 54.0°F12.2°C 92% 4.5 mph WNW7.2 kmh WNW 12.2 mph19.6 kmh 30.07 in1018.3 mb 0.00 in0.0 mm 0.00 in0.0 mm 0.18 in4.6 mm
05:30 AM 56.1°F13.4°C 53.5°F11.9°C 91% 4.8 mph W7.7 kmh W 10.4 mph16.7 kmh 30.07 in1018.3 mb 0.00 in0.0 mm 0.00 in0.0 mm 0.18 in4.6 mm
05:40 AM 55.8°F13.2°C 53.2°F11.8°C 91% 5.4 mph W8.7 kmh W 13.6 mph21.9 kmh 30.07 in1018.3 mb 0.00 in0.0 mm 0.00 in0.0 mm 0.18 in4.6 mm
05:50 AM 55.6°F13.1°C 53.0°F11.7°C 91% 4.8 mph W7.7 kmh W 8.6 mph13.8 kmh 30.07 in1018.3 mb 0.00 in0.0 mm 0.00 in0.0 mm 0.18 in4.6 mm
06:00 AM 55.6°F13.1°C 53.0°F11.7°C 91% 4.7 mph W7.6 kmh W 10.4 mph16.7 kmh 30.07 in1018.3 mb 0.00 in0.0 mm 0.00 in0.0 mm 0.18 in4.6 mm
06:10 AM 55.8°F13.2°C 53.5°F11.9°C 92% 5.6 mph W9.0 kmh W 16.5 mph26.6 kmh 30.09 in1019.0 mb 0.00 in0.0 mm 0.00 in0.0 mm 0.18 in4.6 mm
06:20 AM 55.8°F13.2°C 53.2°F11.8°C 91% 8.6 mph WNW13.8 kmh WNW 17.5 mph28.2 kmh 30.09 in1019.0 mb 0.00 in0.0 mm 0.00 in0.0 mm 0.18 in4.6 mm
06:30 AM 55.6°F13.1°C 52.7°F11.5°C 90% 6.5 mph W10.5 kmh W 14.0 mph22.5 kmh 30.09 in1019.0 mb 0.00 in0.0 mm 0.00 in0.0 mm 0.18 in4.6 mm
06:40 AM 55.6°F13.1°C 52.7°F11.5°C 90% 6.3 mph W10.1 kmh W 10.4 mph16.7 kmh 30.09 in1019.0 mb 0.00 in0.0 mm 0.00 in0.0 mm 0.18 in4.6 mm
06:50 AM 55.8°F13.2°C 52.3°F11.3°C 88% 7.9 mph W12.7 kmh W 10.4 mph16.7 kmh 30.09 in1019.0 mb 0.00 in0.0 mm 0.00 in0.0 mm 0.18 in4.6 mm
07:00 AM 55.8°F13.2°C 51.9°F11.1°C 87% 7.7 mph W12.4 kmh W 10.0 mph16.1 kmh 30.12 in1020.0 mb 0.00 in0.0 mm 0.00 in0.0 mm 0.18 in4.6 mm
07:10 AM 55.9°F13.3°C 51.5°F10.8°C 85% 7.3 mph W11.7 kmh W 8.9 mph14.3 kmh 30.12 in1020.0 mb 0.00 in0.0 mm 0.00 in0.0 mm 0.18 in4.6 mm
07:20 AM 56.1°F13.4°C 51.4°F10.8°C 84% 10.5 mph W16.9 kmh W 12.9 mph20.8 kmh 30.12 in1020.0 mb 0.00 in0.0 mm 0.00 in0.0 mm 0.18 in4.6 mm
07:30 AM 56.3°F13.5°C 49.9°F9.9°C 79% 10.5 mph W16.9 kmh W 12.9 mph20.8 kmh 30.12 in1020.0 mb 0.06 in1.5 mm 0.36 in9.1 mm 0.24 in6.1 mm
07:40 AM 56.7°F13.7°C 50.2°F10.1°C 79% 10.5 mph W16.9 kmh W 12.9 mph20.8 kmh 30.12 in1020.0 mb 0.06 in1.5 mm 0.00 in0.0 mm 0.24 in6.1 mm
07:50 AM 57.0°F13.9°C 49.5°F9.7°C 76% 10.5 mph W16.9 kmh W 12.9 mph20.8 kmh 30.12 in1020.0 mb 0.06 in1.5 mm 0.00 in0.0 mm 0.24 in6.1 mm
08:00 AM 57.0°F13.9°C 48.8°F9.3°C 74% 10.5 mph W16.9 kmh W 12.9 mph20.8 kmh 30.12 in1020.0 mb 0.06 in1.5 mm 0.00 in0.0 mm 0.24 in6.1 mm
08:10 AM 57.4°F14.1°C 48.8°F9.3°C 73% 10.5 mph W16.9 kmh W 12.9 mph20.8 kmh 30.12 in1020.0 mb 0.06 in1.5 mm 0.00 in0.0 mm 0.24 in6.1 mm
08:20 AM 57.6°F14.2°C 49.0°F9.4°C 73% 9.6 mph W15.4 kmh W 11.8 mph19.0 kmh 30.12 in1020.0 mb 0.06 in1.5 mm 0.00 in0.0 mm 0.24 in6.1 mm
08:30 AM 57.7°F14.3°C 48.8°F9.3°C 72% 10.5 mph W16.9 kmh W 14.7 mph23.7 kmh 30.12 in1020.0 mb 0.00 in0.0 mm 0.00 in0.0 mm 0.24 in6.1 mm
08:40 AM 58.1°F14.5°C 48.7°F9.3°C 71% 7.7 mph W12.4 kmh W 20.8 mph33.5 kmh 30.12 in1020.0 mb 0.00 in0.0 mm 0.00 in0.0 mm 0.24 in6.1 mm
08:50 AM 58.3°F14.6°C 48.2°F9.0°C 69% 10.6 mph WNW17.1 kmh WNW 20.8 mph33.5 kmh 30.12 in1020.0 mb 0.00 in0.0 mm 0.00 in0.0 mm 0.24 in6.1 mm
09:00 AM 58.5°F14.7°C 47.9°F8.8°C 68% 7.9 mph NW12.7 kmh NW 9.7 mph15.6 kmh 30.15 in1021.0 mb 0.00 in0.0 mm 0.00 in0.0 mm 0.24 in6.1 mm
09:10 AM 58.5°F14.7°C 47.5°F8.6°C 67% 7.9 mph NW12.7 kmh NW 9.7 mph15.6 kmh 30.15 in1021.0 mb 0.00 in0.0 mm 0.00 in0.0 mm 0.24 in6.1 mm
09:20 AM 58.5°F14.7°C 47.1°F8.4°C 66% 13.1 mph W21.1 kmh W 23.6 mph38.0 kmh 30.15 in1021.0 mb 0.00 in0.0 mm 0.00 in0.0 mm 0.24 in6.1 mm
09:30 AM 59.0°F15.0°C 47.7°F8.7°C 66% 11.1 mph W17.9 kmh W 17.2 mph27.7 kmh 30.18 in1022.0 mb 0.00 in0.0 mm 0.00 in0.0 mm 0.24 in6.1 mm
09:40 AM 59.0°F15.0°C 48.1°F8.9°C 67% 9.2 mph WSW14.8 kmh WSW 19.0 mph30.6 kmh 30.15 in1021.0 mb 0.00 in0.0 mm 0.00 in0.0 mm 0.24 in6.1 mm
09:50 AM 59.2°F15.1°C 47.8°F8.8°C 66% 6.8 mph W10.9 kmh W 10.4 mph16.7 kmh 30.15 in1021.0 mb 0.00 in0.0 mm 0.00 in0.0 mm 0.24 in6.1 mm
10:00 AM 59.2°F15.1°C 47.4°F8.6°C 65% 10.1 mph NW16.3 kmh NW 25.4 mph40.9 kmh 30.18 in1022.0 mb 0.00 in0.0 mm 0.00 in0.0 mm 0.24 in6.1 mm
10:10 AM 59.0°F15.0°C 47.2°F8.4°C 65% 11.6 mph NW18.7 kmh NW 25.4 mph40.9 kmh 30.18 in1022.0 mb 0.00 in0.0 mm 0.00 in0.0 mm 0.24 in6.1 mm
10:20 AM 59.2°F15.1°C 47.4°F8.6°C 65% 9.8 mph W15.8 kmh W 20.0 mph32.2 kmh 30.18 in1022.0 mb 0.00 in0.0 mm 0.00 in0.0 mm 0.24 in6.1 mm
10:30 AM 59.5°F15.3°C 47.3°F8.5°C 64% 14.5 mph NW23.3 kmh NW 27.2 mph43.8 kmh 30.18 in1022.0 mb 0.00 in0.0 mm 0.00 in0.0 mm 0.24 in6.1 mm
10:40 AM 59.4°F15.2°C 47.2°F8.4°C 64% 9.0 mph WNW14.5 kmh WNW 17.2 mph27.7 kmh 30.18 in1022.0 mb 0.00 in0.0 mm 0.00 in0.0 mm 0.24 in6.1 mm
10:50 AM 59.5°F15.3°C 47.3°F8.5°C 64% 9.3 mph W15.0 kmh W 24.3 mph39.1 kmh 30.18 in1022.0 mb 0.00 in0.0 mm 0.00 in0.0 mm 0.24 in6.1 mm
11:00 AM 59.9°F15.5°C 47.3°F8.5°C 63% 10.6 mph W17.1 kmh W 17.2 mph27.7 kmh 30.21 in1023.0 mb 0.00 in0.0 mm 0.00 in0.0 mm 0.24 in6.1 mm
11:10 AM 60.1°F15.6°C 47.4°F8.6°C 63% 8.9 mph NW14.3 kmh NW 20.8 mph33.5 kmh 30.21 in1023.0 mb 0.00 in0.0 mm 0.00 in0.0 mm 0.24 in6.1 mm
11:20 AM 59.7°F15.4°C 46.2°F7.9°C 61% 8.4 mph NW13.5 kmh NW 16.8 mph27.0 kmh 30.21 in1023.0 mb 0.00 in0.0 mm 0.00 in0.0 mm 0.24 in6.1 mm
11:30 AM 59.9°F15.5°C 46.8°F8.2°C 62% 6.8 mph WNW10.9 kmh WNW 12.9 mph20.8 kmh 30.24 in1024.0 mb 0.00 in0.0 mm 0.00 in0.0 mm 0.24 in6.1 mm
11:40 AM 59.9°F15.5°C 46.0°F7.8°C 60% 10.7 mph WNW17.2 kmh WNW 24.7 mph39.8 kmh 30.24 in1024.0 mb 0.00 in0.0 mm 0.00 in0.0 mm 0.24 in6.1 mm
11:50 AM 60.4°F15.8°C 46.9°F8.3°C 61% 11.3 mph NW18.2 kmh NW 34.0 mph54.7 kmh 30.24 in1024.0 mb 0.00 in0.0 mm 0.00 in0.0 mm 0.24 in6.1 mm
12:00 PM 60.6°F15.9°C 46.7°F8.2°C 60% 11.0 mph W17.7 kmh W 15.4 mph24.8 kmh 30.24 in1024.0 mb 0.00 in0.0 mm 0.00 in0.0 mm 0.24 in6.1 mm
12:10 PM 60.3°F15.7°C 45.4°F7.4°C 58% 12.4 mph WSW20.0 kmh WSW 24.7 mph39.8 kmh 30.21 in1023.0 mb 0.00 in0.0 mm 0.00 in0.0 mm 0.24 in6.1 mm
12:20 PM 60.8°F16.0°C 46.4°F8.0°C 59% 8.8 mph W14.2 kmh W 20.4 mph32.8 kmh 30.21 in1023.0 mb 0.00 in0.0 mm 0.00 in0.0 mm 0.24 in6.1 mm
12:30 PM 61.2°F16.2°C 46.3°F7.9°C 58% 15.0 mph WNW24.1 kmh WNW 42.6 mph68.6 kmh 30.21 in1023.0 mb 0.00 in0.0 mm 0.00 in0.0 mm 0.24 in6.1 mm
12:40 PM 61.0°F16.1°C 45.6°F7.6°C 57% 9.7 mph WNW15.6 kmh WNW 24.3 mph39.1 kmh 30.24 in1024.0 mb 0.00 in0.0 mm 0.00 in0.0 mm 0.24 in6.1 mm
12:50 PM 61.3°F16.3°C 46.4°F8.0°C 58% 9.3 mph WNW15.0 kmh WNW 24.7 mph39.8 kmh 30.24 in1024.0 mb 0.00 in0.0 mm 0.00 in0.0 mm 0.24 in6.1 mm
01:00 PM 61.0°F16.1°C 45.2°F7.3°C 56% 11.7 mph NW18.8 kmh NW 31.1 mph50.1 kmh 30.24 in1024.0 mb 0.00 in0.0 mm 0.00 in0.0 mm 0.24 in6.1 mm
01:10 PM 61.0°F16.1°C 45.2°F7.3°C 56% 10.6 mph NW17.1 kmh NW 30.1 mph48.4 kmh 30.27 in1025.1 mb 0.00 in0.0 mm 0.00 in0.0 mm 0.24 in6.1 mm
01:20 PM 61.0°F16.1°C 44.7°F7.1°C 55% 12.6 mph NW20.3 kmh NW 31.5 mph50.7 kmh 30.27 in1025.1 mb 0.00 in0.0 mm 0.00 in0.0 mm 0.24 in6.1 mm
01:30 PM 61.3°F16.3°C 46.0°F7.8°C 57% 10.3 mph WNW16.6 kmh WNW 26.5 mph42.6 kmh 30.27 in1025.1 mb 0.00 in0.0 mm 0.00 in0.0 mm 0.24 in6.1 mm
01:40 PM 61.7°F16.5°C 45.8°F7.7°C 56% 11.1 mph W17.9 kmh W 28.6 mph46.0 kmh 30.27 in1025.1 mb 0.00 in0.0 mm 0.00 in0.0 mm 0.24 in6.1 mm
01:50 PM 61.3°F16.3°C 45.0°F7.2°C 55% 13.3 mph WNW21.4 kmh WNW 36.9 mph59.4 kmh 30.27 in1025.1 mb 0.00 in0.0 mm 0.00 in0.0 mm 0.24 in6.1 mm
02:00 PM 61.5°F16.4°C 45.2°F7.3°C 55% 11.8 mph W19.0 kmh W 33.6 mph54.1 kmh 30.27 in1025.1 mb 0.00 in0.0 mm 0.00 in0.0 mm 0.24 in6.1 mm
02:10 PM 61.3°F16.3°C 45.0°F7.2°C 55% 11.3 mph WNW18.2 kmh WNW 23.6 mph38.0 kmh 30.27 in1025.1 mb 0.00 in0.0 mm 0.00 in0.0 mm 0.24 in6.1 mm
02:20 PM 61.3°F16.3°C 45.0°F7.2°C 55% 10.3 mph WNW16.6 kmh WNW 24.3 mph39.1 kmh 30.27 in1025.1 mb 0.00 in0.0 mm 0.00 in0.0 mm 0.24 in6.1 mm
02:30 PM 61.3°F16.3°C 46.0°F7.8°C 57% 10.7 mph WNW17.2 kmh WNW 19.3 mph31.1 kmh 30.27 in1025.1 mb 0.00 in0.0 mm 0.00 in0.0 mm 0.24 in6.1 mm
02:40 PM 61.7°F16.5°C 46.3°F7.9°C 57% 8.8 mph WNW14.2 kmh WNW 20.4 mph32.8 kmh 30.27 in1025.1 mb 0.00 in0.0 mm 0.00 in0.0 mm 0.24 in6.1 mm
02:50 PM 62.1°F16.7°C 46.6°F8.1°C 57% 9.4 mph WNW15.1 kmh WNW 31.1 mph50.1 kmh 30.27 in1025.1 mb 0.00 in0.0 mm 0.00 in0.0 mm 0.24 in6.1 mm
03:00 PM 61.7°F16.5°C 45.4°F7.4°C 55% 10.3 mph WNW16.6 kmh WNW 27.2 mph43.8 kmh 30.30 in1026.1 mb 0.00 in0.0 mm 0.00 in0.0 mm 0.24 in6.1 mm
03:10 PM 61.2°F16.2°C 44.9°F7.2°C 55% 10.2 mph W16.4 kmh W 22.9 mph36.9 kmh 30.30 in1026.1 mb 0.00 in0.0 mm 0.00 in0.0 mm 0.24 in6.1 mm
03:20 PM 61.3°F16.3°C 45.5°F7.5°C 56% 10.9 mph NW17.5 kmh NW 23.6 mph38.0 kmh 30.30 in1026.1 mb 0.00 in0.0 mm 0.00 in0.0 mm 0.24 in6.1 mm
03:30 PM 61.2°F16.2°C 45.3°F7.4°C 56% 10.1 mph WNW16.3 kmh WNW 20.0 mph32.2 kmh 30.27 in1025.1 mb 0.00 in0.0 mm 0.00 in0.0 mm 0.24 in6.1 mm
03:40 PM 61.2°F16.2°C 45.3°F7.4°C 56% 9.1 mph WNW14.6 kmh WNW 21.1 mph34.0 kmh 30.30 in1026.1 mb 0.00 in0.0 mm 0.00 in0.0 mm 0.24 in6.1 mm
03:50 PM 60.6°F15.9°C 44.8°F7.1°C 56% 10.2 mph WNW16.4 kmh WNW 21.5 mph34.6 kmh 30.30 in1026.1 mb 0.00 in0.0 mm 0.00 in0.0 mm 0.24 in6.1 mm
04:00 PM 60.4°F15.8°C 45.1°F7.3°C 57% 10.4 mph WNW16.7 kmh WNW 23.6 mph38.0 kmh 30.30 in1026.1 mb 0.00 in0.0 mm 0.00 in0.0 mm 0.24 in6.1 mm
04:10 PM 60.1°F15.6°C 45.2°F7.3°C 58% 8.9 mph W14.3 kmh W 19.0 mph30.6 kmh 30.30 in1026.1 mb 0.00 in0.0 mm 0.00 in0.0 mm 0.24 in6.1 mm
04:20 PM 59.7°F15.4°C 44.5°F6.9°C 57% 10.8 mph WNW17.4 kmh WNW 24.3 mph39.1 kmh 30.30 in1026.1 mb 0.00 in0.0 mm 0.00 in0.0 mm 0.24 in6.1 mm
04:30 PM 59.4°F15.2°C 44.1°F6.7°C 57% 9.5 mph W15.3 kmh W 15.0 mph24.1 kmh 30.30 in1026.1 mb 0.00 in0.0 mm 0.00 in0.0 mm 0.24 in6.1 mm
04:40 PM 59.4°F15.2°C 44.6°F7.0°C 58% 9.4 mph WSW15.1 kmh WSW 17.5 mph28.2 kmh 30.33 in1027.1 mb 0.00 in0.0 mm 0.00 in0.0 mm 0.24 in6.1 mm
04:50 PM 59.2°F15.1°C 44.4°F6.9°C 58% 8.0 mph NW12.9 kmh NW 17.5 mph28.2 kmh 30.33 in1027.1 mb 0.00 in0.0 mm 0.00 in0.0 mm 0.24 in6.1 mm
05:00 PM 59.0°F15.0°C 44.2°F6.8°C 58% 6.2 mph WNW10.0 kmh WNW 12.2 mph19.6 kmh 30.30 in1026.1 mb 0.00 in0.0 mm 0.00 in0.0 mm 0.24 in6.1 mm
05:10 PM 59.0°F15.0°C 44.2°F6.8°C 58% 9.9 mph WNW15.9 kmh WNW 20.4 mph32.8 kmh 30.30 in1026.1 mb 0.00 in0.0 mm 0.00 in0.0 mm 0.24 in6.1 mm
05:20 PM 59.0°F15.0°C 44.2°F6.8°C 58% 8.3 mph NW13.4 kmh NW 19.7 mph31.7 kmh 30.30 in1026.1 mb 0.00 in0.0 mm 0.00 in0.0 mm 0.24 in6.1 mm
05:30 PM 58.6°F14.8°C 43.9°F6.6°C 58% 8.3 mph WNW13.4 kmh WNW 16.8 mph27.0 kmh 30.30 in1026.1 mb 0.00 in0.0 mm 0.00 in0.0 mm 0.24 in6.1 mm
05:40 PM 58.5°F14.7°C 44.2°F6.8°C 59% 8.3 mph WNW13.4 kmh WNW 16.5 mph26.6 kmh 30.30 in1026.1 mb 0.00 in0.0 mm 0.00 in0.0 mm 0.24 in6.1 mm
05:50 PM 58.3°F14.6°C 44.0°F6.7°C 59% 8.5 mph WNW13.7 kmh WNW 17.2 mph27.7 kmh 30.30 in1026.1 mb 0.00 in0.0 mm 0.00 in0.0 mm 0.24 in6.1 mm
06:00 PM 58.1°F14.5°C 43.8°F6.6°C 59% 9.1 mph NW14.6 kmh NW 16.8 mph27.0 kmh 30.27 in1025.1 mb 0.00 in0.0 mm 0.00 in0.0 mm 0.24 in6.1 mm
06:10 PM 57.6°F14.2°C 43.8°F6.6°C 60% 7.6 mph W12.2 kmh W 17.5 mph28.2 kmh 30.30 in1026.1 mb 0.00 in0.0 mm 0.00 in0.0 mm 0.24 in6.1 mm
06:20 PM 57.4°F14.1°C 44.0°F6.7°C 61% 8.4 mph WNW13.5 kmh WNW 17.5 mph28.2 kmh 30.30 in1026.1 mb 0.00 in0.0 mm 0.00 in0.0 mm 0.24 in6.1 mm
06:30 PM 57.2°F14.0°C 43.9°F6.6°C 61% 10.0 mph WNW16.1 kmh WNW 19.0 mph30.6 kmh 30.30 in1026.1 mb 0.00 in0.0 mm 0.00 in0.0 mm 0.24 in6.1 mm
06:40 PM 57.0°F13.9°C 43.7°F6.5°C 61% 8.7 mph WNW14.0 kmh WNW 23.6 mph38.0 kmh 30.33 in1027.1 mb 0.00 in0.0 mm 0.00 in0.0 mm 0.24 in6.1 mm
06:50 PM 57.0°F13.9°C 43.7°F6.5°C 61% 8.3 mph WNW13.4 kmh WNW 17.2 mph27.7 kmh 30.33 in1027.1 mb 0.00 in0.0 mm 0.00 in0.0 mm 0.24 in6.1 mm
07:00 PM 56.8°F13.8°C 43.5°F6.4°C 61% 8.4 mph WNW13.5 kmh WNW 17.5 mph28.2 kmh 30.33 in1027.1 mb 0.00 in0.0 mm 0.00 in0.0 mm 0.24 in6.1 mm
07:10 PM 56.7°F13.7°C 43.8°F6.6°C 62% 9.5 mph WNW15.3 kmh WNW 25.4 mph40.9 kmh 30.33 in1027.1 mb 0.00 in0.0 mm 0.00 in0.0 mm 0.24 in6.1 mm
07:20 PM 56.5°F13.6°C 44.0°F6.7°C 63% 8.8 mph NW14.2 kmh NW 27.9 mph44.9 kmh 30.33 in1027.1 mb 0.00 in0.0 mm 0.00 in0.0 mm 0.24 in6.1 mm
07:30 PM 56.5°F13.6°C 44.0°F6.7°C 63% 9.6 mph W15.4 kmh W 20.4 mph32.8 kmh 30.33 in1027.1 mb 0.00 in0.0 mm 0.00 in0.0 mm 0.24 in6.1 mm
07:40 PM 56.5°F13.6°C 44.0°F6.7°C 63% 8.0 mph WNW12.9 kmh WNW 20.8 mph33.5 kmh 30.33 in1027.1 mb 0.00 in0.0 mm 0.00 in0.0 mm 0.24 in6.1 mm
07:50 PM 56.3°F13.5°C 43.9°F6.6°C 63% 9.1 mph NW14.6 kmh NW 27.2 mph43.8 kmh 30.33 in1027.1 mb 0.00 in0.0 mm 0.00 in0.0 mm 0.24 in6.1 mm
08:00 PM 56.3°F13.5°C 43.9°F6.6°C 63% 10.1 mph W16.3 kmh W 21.5 mph34.6 kmh 30.36 in1028.1 mb 0.00 in0.0 mm 0.00 in0.0 mm 0.24 in6.1 mm
08:10 PM 56.5°F13.6°C 44.4°F6.9°C 64% 7.8 mph WNW12.6 kmh WNW 19.7 mph31.7 kmh 30.36 in1028.1 mb 0.00 in0.0 mm 0.00 in0.0 mm 0.24 in6.1 mm
08:20 PM 56.5°F13.6°C 44.4°F6.9°C 64% 9.0 mph W14.5 kmh W 22.5 mph36.2 kmh 30.36 in1028.1 mb 0.00 in0.0 mm 0.00 in0.0 mm 0.24 in6.1 mm
08:30 PM 56.3°F13.5°C 44.7°F7.1°C 65% 7.3 mph WNW11.7 kmh WNW 16.1 mph25.9 kmh 30.36 in1028.1 mb 0.00 in0.0 mm 0.00 in0.0 mm 0.24 in6.1 mm
08:40 PM 56.3°F13.5°C 44.7°F7.1°C 65% 9.3 mph WNW15.0 kmh WNW 23.3 mph37.5 kmh 30.36 in1028.1 mb 0.00 in0.0 mm 0.00 in0.0 mm 0.24 in6.1 mm
08:50 PM 56.1°F13.4°C 44.5°F6.9°C 65% 8.5 mph WNW13.7 kmh WNW 20.0 mph32.2 kmh 30.36 in1028.1 mb 0.00 in0.0 mm 0.00 in0.0 mm 0.24 in6.1 mm
09:00 PM 56.1°F13.4°C 44.9°F7.2°C 66% 8.6 mph W13.8 kmh W 21.1 mph34.0 kmh 30.36 in1028.1 mb 0.00 in0.0 mm 0.00 in0.0 mm 0.24 in6.1 mm
09:10 PM 56.1°F13.4°C 44.9°F7.2°C 66% 8.2 mph W13.2 kmh W 20.4 mph32.8 kmh 30.36 in1028.1 mb 0.00 in0.0 mm 0.00 in0.0 mm 0.24 in6.1 mm
09:20 PM 55.9°F13.3°C 44.7°F7.1°C 66% 7.2 mph W11.6 kmh W 20.4 mph32.8 kmh 30.36 in1028.1 mb 0.00 in0.0 mm 0.00 in0.0 mm 0.24 in6.1 mm
09:30 PM 55.9°F13.3°C 44.7°F7.1°C 66% 11.3 mph WNW18.2 kmh WNW 27.6 mph44.4 kmh 30.36 in1028.1 mb 0.00 in0.0 mm 0.00 in0.0 mm 0.24 in6.1 mm
09:40 PM 55.9°F13.3°C 45.1°F7.3°C 67% 9.6 mph WNW15.4 kmh WNW 24.7 mph39.8 kmh 30.36 in1028.1 mb 0.00 in0.0 mm 0.00 in0.0 mm 0.24 in6.1 mm
09:50 PM 56.1°F13.4°C 44.9°F7.2°C 66% 11.2 mph WNW18.0 kmh WNW 24.7 mph39.8 kmh 30.36 in1028.1 mb 0.00 in0.0 mm 0.00 in0.0 mm 0.24 in6.1 mm
10:00 PM 55.9°F13.3°C 45.1°F7.3°C 67% 8.2 mph WNW13.2 kmh WNW 20.0 mph32.2 kmh 30.36 in1028.1 mb 0.00 in0.0 mm 0.00 in0.0 mm 0.24 in6.1 mm
10:10 PM 55.8°F13.2°C 45.0°F7.2°C 67% 9.2 mph WNW14.8 kmh WNW 27.9 mph44.9 kmh 30.36 in1028.1 mb 0.00 in0.0 mm 0.00 in0.0 mm 0.24 in6.1 mm
10:20 PM 55.8°F13.2°C 45.4°F7.4°C 68% 6.9 mph NW11.1 kmh NW 16.8 mph27.0 kmh 30.36 in1028.1 mb 0.00 in0.0 mm 0.00 in0.0 mm 0.24 in6.1 mm
10:30 PM 55.9°F13.3°C 45.5°F7.5°C 68% 8.9 mph WNW14.3 kmh WNW 23.3 mph37.5 kmh 30.33 in1027.1 mb 0.00 in0.0 mm 0.00 in0.0 mm 0.24 in6.1 mm
10:40 PM 55.8°F13.2°C 45.4°F7.4°C 68% 8.8 mph WNW14.2 kmh WNW 23.3 mph37.5 kmh 30.36 in1028.1 mb 0.00 in0.0 mm 0.00 in0.0 mm 0.24 in6.1 mm
10:50 PM 55.8°F13.2°C 45.4°F7.4°C 68% 8.2 mph WNW13.2 kmh WNW 24.7 mph39.8 kmh 30.36 in1028.1 mb 0.00 in0.0 mm 0.00 in0.0 mm 0.24 in6.1 mm
11:00 PM 55.8°F13.2°C 45.4°F7.4°C 68% 8.5 mph WNW13.7 kmh WNW 21.8 mph35.1 kmh 30.36 in1028.1 mb 0.00 in0.0 mm 0.00 in0.0 mm 0.19 in4.8 mm
11:10 PM 55.6°F13.1°C 45.2°F7.3°C 68% 8.5 mph NW13.7 kmh NW 20.4 mph32.8 kmh 30.33 in1027.1 mb 0.00 in0.0 mm 0.00 in0.0 mm 0.19 in4.8 mm
11:20 PM 55.6°F13.1°C 45.6°F7.6°C 69% 8.7 mph WNW14.0 kmh WNW 19.0 mph30.6 kmh 30.33 in1027.1 mb 0.00 in0.0 mm 0.00 in0.0 mm 0.19 in4.8 mm
11:30 PM 55.4°F13.0°C 45.0°F7.2°C 68% 11.6 mph WNW18.7 kmh WNW 36.9 mph59.4 kmh 30.33 in1027.1 mb 0.00 in0.0 mm 0.00 in0.0 mm 0.19 in4.8 mm
11:40 PM 55.6°F13.1°C 45.6°F7.6°C 69% 8.0 mph WNW12.9 kmh WNW 23.3 mph37.5 kmh 30.33 in1027.1 mb 0.00 in0.0 mm 0.00 in0.0 mm 0.19 in4.8 mm
11:50 PM 55.6°F13.1°C 45.2°F7.3°C 68% 11.2 mph WNW18.0 kmh WNW 26.8 mph43.1 kmh 30.33 in1027.1 mb 0.00 in0.0 mm 0.00 in0.0 mm 0.19 in4.8 mm